Pleasant Gap, North Carolina
Current Conditions -  °F | °C
As of 9:35 PM on Tuesday 21 Oct 2014 (Local Time) from K0A9 Reporting Station
Scattered Clouds Scattered Clouds  
Wind Chill: 48°   Ceiling: Unl
Heat Index: 48°   Visibility: 10mi
Dew Point: 37°   Wind: 0mph
Humidity: 66%   Direction: NA
Pressure: 30.07"   Gusts: NA
Location:  35.955°N, 82.2044°W
Report Text: K0A9 220135Z AUTO 00000KT 10SM SCT060 09/03 A3007 RMK
Loading
Personal Weather Stations






























Interactive Weather Map
Tropical Storm Tracking
New forecast layout! Learn more

10-Day Weather Forecast

Advertisements
Track Severe Weather on mobile